Time;durP1;ratioP1;P1;durP2;ratioP2;P2;SDS_P1;SDS_P2;PMS_P1;PMS_P2;Temp;Humidity;BMP_temperature;BMP_pressure;BME280_temperature;BME280_humidity;BME280_pressure;Samples;Min_cycle;Max_cycle;Signal;HPM_P1;HPM_P2
2021/06/02 00:00:51;;;;;;;3.28;1.40;;;16.20;69.20;;;;;;5004678;28;20137;-71
2021/06/02 00:03:39;;;;;;;2.72;1.60;;;16.10;69.70;;;;;;5011134;28;20414;-72
2021/06/02 00:06:25;;;;;;;3.10;1.60;;;16.10;69.90;;;;;;5012238;28;20437;-71
2021/06/02 00:09:09;;;;;;;2.70;1.70;;;16.00;71.10;;;;;;4992375;28;20549;-70
2021/06/02 00:11:56;;;;;;;3.40;1.73;;;16.00;71.20;;;;;;4999158;28;20390;-70
2021/06/02 00:14:40;;;;;;;2.60;1.50;;;15.90;71.50;;;;;;5012620;28;20116;-70
2021/06/02 00:17:24;;;;;;;3.65;1.75;;;15.90;71.50;;;;;;5004112;28;20597;-70
2021/06/02 00:20:10;;;;;;;4.30;1.88;;;15.90;72.50;;;;;;5006187;28;20410;-70
2021/06/02 00:22:54;;;;;;;4.90;1.92;;;15.80;73.00;;;;;;4993129;28;20091;-71
2021/06/02 00:25:38;;;;;;;4.10;1.73;;;15.70;73.80;;;;;;5021026;28;20449;-70
2021/06/02 00:28:23;;;;;;;5.07;1.93;;;15.60;74.20;;;;;;5011937;28;20492;-70
2021/06/02 00:31:07;;;;;;;4.32;1.80;;;15.50;74.10;;;;;;5010366;28;20040;-70
2021/06/02 00:33:53;;;;;;;5.47;1.55;;;15.50;74.50;;;;;;5012131;28;20396;-70
2021/06/02 00:36:43;;;;;;;5.20;1.83;;;15.50;74.70;;;;;;5011324;28;20052;-70
2021/06/02 00:39:27;;;;;;;4.00;1.58;;;15.50;74.80;;;;;;5011889;28;20080;-70
2021/06/02 00:42:11;;;;;;;2.95;1.48;;;15.50;75.10;;;;;;4992239;28;20037;-70
2021/06/02 00:44:56;;;;;;;3.58;1.92;;;15.50;75.20;;;;;;4993880;28;20081;-71
2021/06/02 00:47:41;;;;;;;;;;;15.40;75.40;;;;;;4992747;28;20054;-70
2021/06/02 00:50:25;;;;;;;3.92;1.95;;;15.40;75.00;;;;;;4992441;28;19941;-72
2021/06/02 00:53:10;;;;;;;3.15;2.22;;;15.40;76.00;;;;;;4992113;28;20049;-72
2021/06/02 00:56:02;;;;;;;5.57;2.05;;;15.40;76.40;;;;;;4993151;28;20508;-72
2021/06/02 00:58:50;;;;;;;3.72;2.40;;;15.30;77.50;;;;;;4991985;28;20038;-72
2021/06/02 01:01:35;;;;;;;3.10;1.92;;;15.30;78.00;;;;;;5005588;28;20052;-72
2021/06/02 01:04:23;;;;;;;4.03;1.98;;;15.20;78.80;;;;;;5014787;28;20157;-72
2021/06/02 01:07:10;;;;;;;4.22;1.92;;;15.30;79.40;;;;;;4997042;28;20042;-72
2021/06/02 01:09:58;;;;;;;4.00;2.13;;;15.20;80.10;;;;;;4995910;28;20114;-72
2021/06/02 01:12:45;;;;;;;5.97;2.35;;;15.10;80.20;;;;;;5014613;28;20087;-72
2021/06/02 01:15:11;;;;;;;4.82;2.10;;;15.10;81.10;;;;;;5012381;28;20043;-71
2021/06/02 01:17:55;;;;;;;4.85;2.53;;;15.10;81.30;;;;;;4995637;28;20045;-71
2021/06/02 01:20:40;;;;;;;7.15;2.42;;;15.10;81.60;;;;;;5005526;28;20470;-71
2021/06/02 01:23:24;;;;;;;4.22;2.10;;;15.10;81.50;;;;;;4998773;28;20150;-71
2021/06/02 01:26:08;;;;;;;3.22;2.20;;;15.10;81.20;;;;;;4994272;28;20228;-72
2021/06/02 01:28:53;;;;;;;4.93;2.35;;;15.10;81.40;;;;;;4995955;28;20089;-72
2021/06/02 01:32:06;;;;;;;6.55;2.42;;;15.10;81.80;;;;;;4995487;28;20406;-68
2021/06/02 01:35:35;;;;;;;7.70;2.33;;;15.00;82.10;;;;;;5007582;28;20032;-68
2021/06/02 01:38:37;;;;;;;3.63;2.20;;;15.00;83.00;;;;;;5009181;28;20049;-69
2021/06/02 01:41:31;;;;;;;4.95;2.20;;;14.90;82.60;;;;;;4999624;28;20041;-68
2021/06/02 01:44:40;;;;;;;5.70;2.50;;;14.90;83.00;;;;;;5014966;28;20079;-68
2021/06/02 01:47:24;;;;;;;11.30;3.45;;;14.80;83.70;;;;;;4998964;28;20053;-69
2021/06/02 01:50:29;;;;;;;6.88;2.83;;;14.80;83.70;;;;;;4995026;28;20104;-69
2021/06/02 01:53:46;;;;;;;4.50;2.35;;;14.70;83.70;;;;;;4997808;28;20141;-69
2021/06/02 01:56:49;;;;;;;4.25;2.40;;;14.70;83.60;;;;;;5013963;28;20036;-69
2021/06/02 02:00:22;;;;;;;4.35;2.47;;;14.70;84.10;;;;;;5014454;28;20143;-69
2021/06/02 02:03:24;;;;;;;5.50;2.47;;;14.70;84.50;;;;;;5009767;28;20091;-69
2021/06/02 02:06:43;;;;;;;6.15;2.90;;;14.60;84.50;;;;;;5011125;28;20409;-69
2021/06/02 02:09:46;;;;;;;5.32;2.47;;;14.60;85.50;;;;;;4994792;28;20399;-69
2021/06/02 02:12:44;;;;;;;6.47;2.55;;;14.60;85.40;;;;;;4994929;28;20068;-69
2021/06/02 02:15:50;;;;;;;5.88;2.58;;;14.60;85.60;;;;;;4999795;28;20052;-70
2021/06/02 02:18:52;;;;;;;5.68;3.13;;;14.50;85.80;;;;;;4994825;28;20157;-70
2021/06/02 02:21:39;;;;;;;5.03;2.80;;;14.50;86.40;;;;;;5014139;28;20299;-70
2021/06/02 02:24:49;;;;;;;7.28;2.88;;;14.60;86.70;;;;;;5013874;28;20033;-70
2021/06/02 02:28:07;;;;;;;5.30;3.03;;;14.50;87.00;;;;;;5000723;28;20041;-70
2021/06/02 02:31:23;;;;;;;4.65;2.85;;;14.50;87.20;;;;;;4996262;28;20153;-73
2021/06/02 02:34:38;;;;;;;6.30;3.13;;;14.40;87.80;;;;;;4997006;28;20052;-72
2021/06/02 02:37:33;;;;;;;7.22;2.90;;;14.40;88.00;;;;;;5013597;28;20049;-72
2021/06/02 02:40:28;;;;;;;8.00;3.50;;;14.40;88.00;;;;;;5001504;28;20497;-72
2021/06/02 02:43:30;;;;;;;8.27;3.50;;;14.40;88.20;;;;;;4994128;28;20065;-72
2021/06/02 02:46:37;;;;;;;6.85;3.15;;;14.30;88.10;;;;;;5013300;28;20064;-72
2021/06/02 02:49:36;;;;;;;7.65;3.15;;;14.30;89.30;;;;;;4993985;28;20045;-71
2021/06/02 02:52:23;;;;;;;5.78;3.70;;;14.30;89.10;;;;;;4994454;28;20143;-72
2021/06/02 02:55:17;;;;;;;8.27;4.10;;;14.20;89.40;;;;;;4994002;28;20069;-72
2021/06/02 02:58:21;;;;;;;9.38;3.67;;;14.20;89.60;;;;;;4993925;28;20251;-71
2021/06/02 03:01:14;;;;;;;6.28;3.42;;;14.20;90.00;;;;;;5007329;28;20528;-72
2021/06/02 03:04:16;;;;;;;9.75;4.03;;;14.10;90.20;;;;;;4993823;28;20064;-72
2021/06/02 03:07:05;;;;;;;6.43;4.07;;;14.10;90.40;;;;;;4994126;28;20037;-73
2021/06/02 03:10:01;;;;;;;8.27;4.00;;;14.00;90.70;;;;;;4993657;28;20036;-73
2021/06/02 03:13:03;;;;;;;9.00;4.40;;;14.00;90.80;;;;;;5000324;28;20168;-72
2021/06/02 03:15:58;;;;;;;8.57;4.07;;;14.00;90.90;;;;;;5004740;28;20116;-70
2021/06/02 03:19:15;;;;;;;7.43;4.03;;;13.90;91.10;;;;;;5000530;28;20049;-69
2021/06/02 03:22:07;;;;;;;8.88;4.30;;;13.90;91.20;;;;;;4994418;28;20044;-71
2021/06/02 03:25:02;;;;;;;6.70;4.18;;;13.90;91.40;;;;;;5024409;28;20539;-70
2021/06/02 03:27:59;;;;;;;10.35;4.25;;;13.90;91.50;;;;;;5013258;28;20048;-70
2021/06/02 03:31:00;;;;;;;9.75;4.75;;;13.90;91.30;;;;;;5013052;28;20112;-70
2021/06/02 03:34:19;;;;;;;8.13;4.45;;;13.90;91.40;;;;;;5013361;28;20497;-70
2021/06/02 03:37:23;;;;;;;7.32;4.40;;;13.90;91.60;;;;;;5015424;28;20063;-71
2021/06/02 03:40:32;;;;;;;11.75;4.53;;;13.80;91.70;;;;;;5014873;28;20033;-71
2021/06/02 03:43:34;;;;;;;7.32;4.50;;;13.90;91.70;;;;;;4995252;28;20058;-71
2021/06/02 03:46:53;;;;;;;7.88;4.50;;;13.80;91.80;;;;;;4993362;28;20122;-72
2021/06/02 03:50:04;;;;;;;10.10;4.95;;;13.80;91.90;;;;;;5001459;28;20053;-74
2021/06/02 03:52:48;;;;;;;6.75;4.50;;;13.80;92.10;;;;;;5021346;28;20604;-72
2021/06/02 03:55:43;;;;;;;8.48;4.50;;;13.90;92.20;;;;;;5013754;28;20056;-73
2021/06/02 03:58:57;;;;;;;11.82;5.25;;;13.90;92.40;;;;;;5012334;28;20449;-71
2021/06/02 04:01:51;;;;;;;6.85;4.25;;;13.90;92.20;;;;;;5010174;28;20037;-72
2021/06/02 04:04:42;;;;;;;10.25;4.60;;;13.90;92.20;;;;;;5012008;28;20056;-72
2021/06/02 04:07:51;;;;;;;8.35;4.60;;;13.90;92.30;;;;;;4997580;28;20114;-71
2021/06/02 04:11:03;;;;;;;19.30;5.00;;;13.90;92.30;;;;;;4979418;28;20441;-69
2021/06/02 04:13:57;;;;;;;8.05;4.63;;;14.00;92.30;;;;;;4994149;28;20541;-78
2021/06/02 04:16:42;;;;;;;10.95;5.18;;;14.00;92.30;;;;;;5004131;28;20044;-74
2021/06/02 04:19:33;;;;;;;8.38;4.35;;;14.10;92.30;;;;;;5012304;28;20087;-71
2021/06/02 04:22:20;;;;;;;9.23;4.68;;;14.20;92.20;;;;;;5001984;28;20084;-75
2021/06/02 04:25:05;;;;;;;7.35;4.50;;;14.20;92.20;;;;;;5028338;28;20076;-75
2021/06/02 04:27:49;;;;;;;8.07;4.28;;;14.30;92.20;;;;;;5000244;28;20077;-75
2021/06/02 04:30:37;;;;;;;10.50;4.97;;;14.30;92.10;;;;;;4994236;28;20399;-79
2021/06/02 04:33:26;;;;;;;8.75;4.38;;;14.30;92.10;;;;;;4992528;28;20165;-78
2021/06/02 04:36:13;;;;;;;7.07;4.63;;;14.30;92.20;;;;;;4996004;28;20257;-80
2021/06/02 04:38:59;;;;;;;9.55;5.05;;;14.30;92.30;;;;;;5010149;28;20045;-79
2021/06/02 04:41:44;;;;;;;9.57;4.82;;;14.30;92.20;;;;;;5001832;28;20036;-78
2021/06/02 04:44:29;;;;;;;;;;;14.40;92.10;;;;;;5006470;28;20517;-80
2021/06/02 04:47:14;;;;;;;8.63;4.32;;;14.40;92.30;;;;;;4998111;28;20048;-81
2021/06/02 04:50:04;;;;;;;8.40;5.50;;;14.50;92.10;;;;;;5003341;28;20041;-81
2021/06/02 04:53:10;;;;;;;7.18;4.80;;;14.50;92.10;;;;;;4992651;28;20214;-84
2021/06/02 04:56:36;;;;;;;6.68;4.65;;;14.50;92.10;;;;;;4992735;28;20080;-78
2021/06/02 05:00:02;;;;;;;7.18;4.55;;;14.50;92.10;;;;;;4992420;28;20363;-77
2021/06/02 05:03:16;;;;;;;9.45;4.72;;;14.60;92.10;;;;;;5000811;28;20088;-78
2021/06/02 05:06:19;;;;;;;8.70;5.22;;;14.70;92.00;;;;;;4999890;28;20033;-77
2021/06/02 05:09:42;;;;;;;7.03;4.60;;;14.70;92.00;;;;;;4992532;28;20108;-81
2021/06/02 05:13:04;;;;;;;7.90;4.43;;;14.80;92.00;;;;;;5002203;28;20105;-82
2021/06/02 05:16:18;;;;;;;6.53;3.85;;;15.00;92.00;;;;;;4996298;28;20104;-82
2021/06/02 05:19:47;;;;;;;7.50;4.30;;;15.10;91.90;;;;;;5013346;28;20048;-81
2021/06/02 05:23:27;;;;;;;8.15;4.07;;;15.20;91.80;;;;;;4992679;28;20048;-76
2021/06/02 05:26:45;;;;;;;9.50;4.82;;;15.30;91.60;;;;;;4996827;28;20080;-80
2021/06/02 05:30:11;;;;;;;8.32;4.00;;;15.40;91.30;;;;;;4996139;28;20521;-79
2021/06/02 05:33:20;;;;;;;8.10;4.43;;;15.50;91.40;;;;;;4992595;28;20030;-79
2021/06/02 05:36:29;;;;;;;6.90;3.75;;;15.60;91.30;;;;;;5011674;28;20048;-81
2021/06/02 05:39:34;;;;;;;6.70;4.15;;;15.60;91.20;;;;;;5008021;28;20053;-79
2021/06/02 05:42:23;;;;;;;8.95;4.03;;;15.70;91.10;;;;;;4991941;28;20038;-81
2021/06/02 05:45:38;;;;;;;7.93;4.40;;;15.80;91.00;;;;;;5006388;28;20049;-79
2021/06/02 05:48:49;;;;;;;8.40;4.18;;;15.90;90.90;;;;;;5016548;28;20057;-78
2021/06/02 05:51:42;;;;;;;9.00;4.20;;;16.00;90.90;;;;;;5015965;28;20041;-80
2021/06/02 05:54:57;;;;;;;8.93;4.45;;;16.10;90.70;;;;;;5011319;28;20104;-79
2021/06/02 05:57:50;;;;;;;8.15;4.15;;;16.20;90.60;;;;;;5016089;28;20041;-79
2021/06/02 06:01:05;;;;;;;10.98;4.50;;;16.30;90.50;;;;;;5005654;28;20028;-80
2021/06/02 06:04:09;;;;;;;6.63;4.07;;;16.50;90.40;;;;;;5009049;28;20061;-81
2021/06/02 06:06:56;;;;;;;8.10;4.15;;;16.60;90.10;;;;;;5015037;28;20301;-79
2021/06/02 06:10:05;;;;;;;7.43;3.88;;;16.70;90.10;;;;;;5010834;28;20049;-79
2021/06/02 06:13:26;;;;;;;6.20;4.15;;;16.80;89.70;;;;;;5014834;28;20033;-79
2021/06/02 06:16:34;;;;;;;9.45;4.10;;;16.90;89.60;;;;;;5032628;28;20026;-79
2021/06/02 06:19:57;;;;;;;6.95;4.38;;;17.00;89.30;;;;;;5020896;28;20052;-78
2021/06/02 06:23:02;;;;;;;7.55;4.43;;;17.00;88.50;;;;;;5008989;28;20065;-78
2021/06/02 06:26:00;;;;;;;9.73;4.15;;;17.10;88.90;;;;;;5014014;28;20037;-79
2021/06/02 06:29:24;;;;;;;7.63;4.85;;;17.20;88.40;;;;;;5005463;28;20041;-80
2021/06/02 06:32:08;;;;;;;6.93;3.85;;;17.20;88.40;;;;;;5014423;28;20061;-79
2021/06/02 06:34:53;;;;;;;8.00;5.07;;;17.30;88.50;;;;;;5015453;28;20029;-81
2021/06/02 06:37:45;;;;;;;9.13;4.07;;;17.40;88.20;;;;;;5013376;28;20044;-81
2021/06/02 06:40:31;;;;;;;7.88;3.95;;;17.50;88.00;;;;;;5008258;28;20473;-81
2021/06/02 06:43:18;;;;;;;8.60;3.90;;;17.70;87.90;;;;;;5006489;28;20091;-74
2021/06/02 06:46:03;;;;;;;7.13;3.50;;;17.90;87.30;;;;;;5004569;28;20093;-75
2021/06/02 06:48:49;;;;;;;7.88;3.67;;;18.00;86.40;;;;;;5003181;28;20402;-74
2021/06/02 06:51:34;;;;;;;5.93;3.53;;;18.20;86.60;;;;;;5011245;28;20509;-74
2021/06/02 06:54:21;;;;;;;7.25;4.03;;;18.30;86.00;;;;;;5008843;28;20037;-74
2021/06/02 06:57:05;;;;;;;7.22;3.65;;;18.50;85.40;;;;;;5003765;28;20064;-76
2021/06/02 06:59:51;;;;;;;4.97;3.83;;;18.70;85.20;;;;;;4996512;28;20064;-74
2021/06/02 07:02:36;;;;;;;;;;;18.80;85.50;;;;;;5006151;28;20120;-75
2021/06/02 07:05:22;;;;;;;7.70;3.88;;;19.00;83.80;;;;;;5007326;28;19960;-75
2021/06/02 07:08:08;;;;;;;6.15;4.10;;;19.00;84.10;;;;;;5012258;28;20501;-76
2021/06/02 07:10:52;;;;;;;8.60;4.60;;;19.10;83.50;;;;;;5011746;28;20065;-75
2021/06/02 07:13:40;;;;;;;8.43;3.83;;;19.10;83.20;;;;;;5000306;28;20390;-74
2021/06/02 07:16:24;;;;;;;6.57;4.50;;;19.00;82.50;;;;;;5012126;28;20056;-76
2021/06/02 07:19:11;;;;;;;8.90;4.72;;;19.00;82.40;;;;;;5010057;28;20037;-74
2021/06/02 07:21:57;;;;;;;7.50;4.28;;;18.90;82.40;;;;;;5000320;28;20067;-73
2021/06/02 07:24:41;;;;;;;7.85;4.15;;;18.90;82.30;;;;;;5013423;28;20504;-73
2021/06/02 07:27:27;;;;;;;5.88;4.20;;;19.00;82.60;;;;;;5011928;28;20172;-73
2021/06/02 07:30:12;;;;;;;7.72;4.15;;;19.00;82.50;;;;;;4999993;28;20077;-72
2021/06/02 07:32:56;;;;;;;10.80;4.22;;;19.00;82.70;;;;;;5009668;28;20143;-72
2021/06/02 07:35:40;;;;;;;9.37;4.27;;;19.00;82.50;;;;;;5012965;28;20080;-72
2021/06/02 07:38:24;;;;;;;7.97;3.97;;;19.10;82.40;;;;;;5007082;28;20305;-72
2021/06/02 07:41:09;;;;;;;9.13;4.50;;;19.10;81.90;;;;;;5007396;28;20516;-72
2021/06/02 07:43:53;;;;;;;8.52;4.53;;;19.10;81.70;;;;;;5011161;28;20044;-72
2021/06/02 07:46:37;;;;;;;6.18;3.60;;;19.10;81.20;;;;;;5009229;28;20084;-72
2021/06/02 07:49:21;;;;;;;6.55;3.83;;;19.10;81.30;;;;;;5010448;28;20088;-72
2021/06/02 07:52:05;;;;;;;5.73;4.00;;;19.10;81.20;;;;;;4996148;28;20041;-72
2021/06/02 07:54:49;;;;;;;7.40;4.68;;;19.20;81.90;;;;;;4999797;28;20474;-72
2021/06/02 07:57:34;;;;;;;6.07;4.00;;;19.20;81.40;;;;;;5011309;28;20092;-72
2021/06/02 08:00:18;;;;;;;7.05;4.05;;;19.30;81.50;;;;;;5006713;28;20096;-72
2021/06/02 08:03:02;;;;;;;8.10;4.95;;;19.30;81.30;;;;;;5011271;28;20069;-71
2021/06/02 08:05:28;;;;;;;8.27;4.45;;;19.40;81.30;;;;;;5007624;28;20045;-71
2021/06/02 08:08:12;;;;;;;7.75;4.93;;;19.50;81.10;;;;;;5002859;28;20033;-71
2021/06/02 08:10:57;;;;;;;6.83;4.10;;;19.50;81.10;;;;;;5006364;28;20032;-71
2021/06/02 08:13:41;;;;;;;10.60;4.78;;;19.60;80.80;;;;;;5001302;28;20328;-71
2021/06/02 08:16:25;;;;;;;6.60;4.25;;;19.60;80.60;;;;;;5008966;28;20033;-72
2021/06/02 08:19:09;;;;;;;7.22;5.00;;;19.60;79.70;;;;;;4997769;28;20173;-71
2021/06/02 08:21:53;;;;;;;7.68;4.60;;;19.70;80.00;;;;;;5000420;28;20052;-72
2021/06/02 08:24:39;;;;;;;5.73;4.30;;;19.70;80.20;;;;;;5006355;28;20088;-71
2021/06/02 08:27:23;;;;;;;7.72;4.40;;;19.80;79.80;;;;;;5002488;28;20040;-72
2021/06/02 08:30:08;;;;;;;10.00;5.65;;;19.90;79.90;;;;;;4997378;28;20165;-72
2021/06/02 08:32:53;;;;;;;6.60;4.90;;;19.90;79.60;;;;;;5008424;28;20382;-72
2021/06/02 08:35:36;;;;;;;9.23;5.00;;;20.00;79.20;;;;;;5009684;28;20033;-71
2021/06/02 08:38:21;;;;;;;9.03;4.70;;;20.00;79.40;;;;;;5008974;28;20100;-71
2021/06/02 08:41:06;;;;;;;7.97;4.47;;;20.10;79.30;;;;;;5013822;28;20117;-72
2021/06/02 08:43:50;;;;;;;9.57;5.22;;;20.10;79.70;;;;;;5011216;28;20401;-72
2021/06/02 08:46:38;;;;;;;7.88;4.93;;;20.20;79.40;;;;;;5006728;28;20145;-72
2021/06/02 08:49:22;;;;;;;8.15;5.22;;;20.20;78.60;;;;;;5008391;28;20505;-72
2021/06/02 08:52:08;;;;;;;8.88;4.80;;;20.30;78.70;;;;;;5010776;28;20307;-72
2021/06/02 08:54:54;;;;;;;7.47;4.88;;;20.40;78.90;;;;;;5002181;28;20045;-71
2021/06/02 08:57:43;;;;;;;8.27;5.05;;;20.40;78.50;;;;;;5009009;28;20065;-71
2021/06/02 09:00:27;;;;;;;10.23;4.85;;;20.40;78.20;;;;;;4997206;28;20056;-71
2021/06/02 09:03:12;;;;;;;7.38;4.82;;;20.50;78.00;;;;;;5007493;28;20048;-71
2021/06/02 09:05:57;;;;;;;7.55;4.68;;;20.50;78.00;;;;;;5010561;28;20436;-71
2021/06/02 09:08:42;;;;;;;7.18;4.70;;;20.60;77.40;;;;;;4998753;28;20406;-71
2021/06/02 09:11:26;;;;;;;;;;;20.70;76.90;;;;;;5006018;28;20450;-71
2021/06/02 09:14:24;;;;;;;12.20;4.40;;;20.80;77.10;;;;;;5005819;28;20009;-71
2021/06/02 09:17:12;;;;;;;9.98;4.97;;;20.90;76.70;;;;;;5008699;28;20063;-71
2021/06/02 09:19:56;;;;;;;6.85;4.25;;;21.10;76.30;;;;;;5008665;28;20131;-70
2021/06/02 09:22:40;;;;;;;7.75;4.30;;;21.20;75.50;;;;;;5014876;28;20088;-71
2021/06/02 09:25:24;;;;;;;10.45;4.85;;;21.40;75.70;;;;;;5008451;28;20059;-71
2021/06/02 09:28:08;;;;;;;6.50;4.03;;;21.50;75.00;;;;;;5014385;28;20053;-72
2021/06/02 09:30:52;;;;;;;7.70;4.70;;;21.60;73.90;;;;;;5015203;28;20506;-71
2021/06/02 09:33:44;;;;;;;7.22;4.50;;;21.70;73.40;;;;;;5014278;28;20065;-73
2021/06/02 09:36:31;;;;;;;8.00;4.47;;;21.90;73.00;;;;;;5012318;28;20080;-72
2021/06/02 09:39:18;;;;;;;9.75;4.38;;;22.00;73.30;;;;;;5004921;28;20096;-72
2021/06/02 09:42:28;;;;;;;6.10;4.25;;;22.10;72.30;;;;;;5012738;28;20079;-73
2021/06/02 09:45:14;;;;;;;7.38;4.53;;;22.20;71.10;;;;;;5014360;28;20052;-74
2021/06/02 09:48:00;;;;;;;7.38;4.88;;;22.30;71.00;;;;;;5014037;28;20370;-71
2021/06/02 09:50:44;;;;;;;6.57;4.75;;;22.40;70.30;;;;;;5014835;28;20501;-73
2021/06/02 09:53:29;;;;;;;8.77;5.38;;;22.50;70.20;;;;;;5014178;28;20194;-73
2021/06/02 09:56:13;;;;;;;8.47;4.67;;;22.60;68.50;;;;;;5000769;28;20239;-72
2021/06/02 09:58:38;;;;;;;7.20;4.30;;;22.60;68.80;;;;;;5011985;28;20304;-72
2021/06/02 10:01:04;;;;;;;6.70;4.60;;;22.70;68.70;;;;;;5010419;28;20077;-71
2021/06/02 10:03:32;;;;;;;11.27;5.20;;;22.70;68.10;;;;;;5005917;28;20058;-71
2021/06/02 10:05:58;;;;;;;9.23;4.43;;;22.80;67.80;;;;;;5014840;28;20109;-72
2021/06/02 10:08:30;;;;;;;8.05;4.57;;;22.90;67.90;;;;;;5012076;28;20136;-70
2021/06/02 10:11:09;;;;;;;6.35;4.50;;;23.00;67.10;;;;;;5014567;28;20025;-71
2021/06/02 10:13:38;;;;;;;8.05;4.90;;;23.10;67.10;;;;;;5006601;28;20117;-71
2021/06/02 10:16:04;;;;;;;6.38;4.60;;;23.10;66.00;;;;;;5007549;28;20053;-70
2021/06/02 10:18:32;;;;;;;8.18;4.40;;;23.20;64.90;;;;;;5007592;28;20030;-71
2021/06/02 10:20:58;;;;;;;6.95;4.40;;;23.20;64.10;;;;;;5001589;28;20030;-71
2021/06/02 10:23:25;;;;;;;6.93;4.07;;;23.20;63.60;;;;;;5002543;28;20029;-72
2021/06/02 10:25:52;;;;;;;6.20;4.20;;;23.20;63.20;;;;;;5009759;28;20030;-71
2021/06/02 10:28:18;;;;;;;7.32;4.18;;;23.30;62.60;;;;;;5007052;28;20091;-70
2021/06/02 10:30:43;;;;;;;6.28;4.90;;;23.30;62.40;;;;;;5012825;28;20040;-70
2021/06/02 10:33:09;;;;;;;7.32;4.32;;;23.30;62.50;;;;;;5012219;28;20374;-70
2021/06/02 10:35:34;;;;;;;7.07;4.50;;;23.30;62.70;;;;;;5014077;28;20022;-71
2021/06/02 10:38:00;;;;;;;7.35;4.50;;;23.40;62.80;;;;;;5012567;28;20041;-71
2021/06/02 10:40:29;;;;;;;5.28;4.05;;;23.40;62.10;;;;;;5024894;28;20014;-71
2021/06/02 10:43:00;;;;;;;5.47;3.90;;;23.50;61.80;;;;;;5013884;28;20018;-71
2021/06/02 10:45:29;;;;;;;8.25;4.75;;;23.60;61.80;;;;;;5012670;28;20026;-70
2021/06/02 10:48:00;;;;;;;5.88;4.22;;;23.70;60.80;;;;;;5011792;28;20025;-71
2021/06/02 10:50:47;;;;;;;6.70;4.60;;;23.70;60.90;;;;;;5007485;28;20089;-71
2021/06/02 10:53:18;;;;;;;4.68;4.05;;;23.80;61.20;;;;;;5011680;28;20033;-70
2021/06/02 10:55:45;;;;;;;8.30;3.88;;;23.90;61.10;;;;;;5011157;28;20049;-69
2021/06/02 10:58:33;;;;;;;4.63;3.75;;;24.00;60.30;;;;;;5000445;28;20069;-70
2021/06/02 11:01:07;;;;;;;5.85;3.85;;;24.00;58.90;;;;;;5010706;28;20084;-69
2021/06/02 11:04:10;;;;;;;5.38;4.32;;;24.00;58.90;;;;;;4997694;28;20122;-70
2021/06/02 11:07:13;;;;;;;7.43;4.20;;;24.00;58.20;;;;;;5006329;28;20044;-71
2021/06/02 11:10:00;;;;;;;6.20;4.40;;;24.00;58.30;;;;;;5011543;28;20045;-70
2021/06/02 11:12:44;;;;;;;6.50;3.80;;;24.00;58.30;;;;;;5002714;28;20096;-70
2021/06/02 11:15:21;;;;;;;5.95;3.85;;;24.10;59.10;;;;;;5007201;28;20021;-70
2021/06/02 11:18:16;;;;;;;5.43;4.05;;;24.10;59.10;;;;;;5013537;28;20048;-70
2021/06/02 11:21:12;;;;;;;5.60;3.90;;;24.20;58.30;;;;;;5012320;28;20053;-70
2021/06/02 11:23:56;;;;;;;6.57;4.13;;;24.40;57.80;;;;;;5005682;28;20507;-70
2021/06/02 11:26:25;;;;;;;8.40;4.18;;;24.50;56.90;;;;;;5009935;28;20116;-70
2021/06/02 11:28:52;;;;;;;6.50;3.97;;;24.50;56.40;;;;;;5010410;28;20032;-70
2021/06/02 11:31:37;;;;;;;6.35;4.00;;;24.60;56.70;;;;;;5005531;28;20061;-70
2021/06/02 11:34:30;;;;;;;7.70;3.83;;;24.70;56.10;;;;;;5011898;28;20025;-70
2021/06/02 11:37:02;;;;;;;6.82;3.63;;;24.90;55.90;;;;;;5009079;28;20037;-70
2021/06/02 11:39:28;;;;;;;8.07;4.40;;;25.00;54.80;;;;;;5009903;28;20029;-71
2021/06/02 11:41:59;;;;;;;7.40;3.88;;;25.00;54.70;;;;;;5010608;28;20080;-70
2021/06/02 11:44:32;;;;;;;4.80;3.60;;;24.90;53.80;;;;;;5012056;28;20474;-70
2021/06/02 11:46:59;;;;;;;6.03;4.00;;;24.80;53.30;;;;;;5010300;28;20037;-70
2021/06/02 11:49:30;;;;;;;6.57;4.35;;;24.70;53.10;;;;;;5010109;28;20120;-70
2021/06/02 11:52:05;;;;;;;6.65;3.83;;;24.70;53.20;;;;;;5011630;28;20053;-70
2021/06/02 11:54:51;;;;;;;6.03;3.88;;;24.70;52.80;;;;;;5011143;28;20057;-70
2021/06/02 11:57:26;;;;;;;7.88;3.90;;;24.80;53.20;;;;;;5011335;28;20497;-71
2021/06/02 11:59:53;;;;;;;8.25;3.80;;;24.90;53.50;;;;;;5010161;28;20034;-71
2021/06/02 12:02:19;;;;;;;4.30;3.42;;;25.00;54.10;;;;;;5010156;28;20430;-71
2021/06/02 12:04:44;;;;;;;8.18;3.83;;;25.10;53.40;;;;;;5010600;28;20041;-71
2021/06/02 12:07:24;;;;;;;7.65;3.90;;;25.10;52.20;;;;;;5010543;28;20083;-71
2021/06/02 12:09:55;;;;;;;5.82;3.58;;;25.10;51.60;;;;;;5004509;28;20092;-71
2021/06/02 12:12:22;;;;;;;4.43;3.55;;;25.10;51.30;;;;;;5013860;28;20445;-71
2021/06/02 12:14:52;;;;;;;8.25;3.60;;;25.10;51.00;;;;;;5011737;28;20116;-71
2021/06/02 12:17:17;;;;;;;7.95;3.40;;;25.10;51.20;;;;;;5009975;28;20394;-71
2021/06/02 12:19:43;;;;;;;6.97;3.58;;;25.10;51.20;;;;;;5008520;28;20037;-71
2021/06/02 12:22:18;;;;;;;8.02;3.80;;;25.20;51.40;;;;;;5011745;28;20061;-71
2021/06/02 12:25:18;;;;;;;6.57;3.20;;;25.20;50.90;;;;;;5010913;28;20533;-74
2021/06/02 12:28:07;;;;;;;7.65;4.05;;;25.30;51.60;;;;;;5010574;28;20037;-71
2021/06/02 12:30:51;;;;;;;8.95;4.05;;;25.30;52.20;;;;;;5004907;28;20087;-71
2021/06/02 12:33:16;;;;;;;9.18;4.07;;;25.30;51.60;;;;;;4994939;28;20034;-71
2021/06/02 12:35:43;;;;;;;5.35;3.92;;;25.30;52.10;;;;;;4994584;28;20034;-70
2021/06/02 12:38:26;;;;;;;7.10;3.70;;;25.30;51.50;;;;;;5007208;28;20394;-70
2021/06/02 12:40:57;;;;;;;7.43;3.70;;;25.40;51.70;;;;;;5001959;28;20022;-70
2021/06/02 12:43:31;;;;;;;7.13;4.05;;;25.40;51.70;;;;;;4999589;28;20490;-70
2021/06/02 12:46:16;;;;;;;6.82;3.70;;;25.60;52.00;;;;;;5001056;28;20080;-70
2021/06/02 12:49:06;;;;;;;5.10;3.72;;;25.70;52.40;;;;;;5005753;28;20077;-70
2021/06/02 12:51:54;;;;;;;6.70;3.40;;;25.80;52.10;;;;;;4999197;28;20133;-70
2021/06/02 12:54:40;;;;;;;5.47;3.15;;;25.80;51.50;;;;;;4999515;28;20147;-71
2021/06/02 12:57:27;;;;;;;4.18;3.40;;;25.90;51.20;;;;;;5003851;28;20042;-70
2021/06/02 13:00:12;;;;;;;5.20;3.20;;;26.00;51.20;;;;;;5001721;28;20037;-74
2021/06/02 13:02:58;;;;;;;6.07;3.80;;;26.30;51.00;;;;;;4998826;28;20101;-70
2021/06/02 13:05:47;;;;;;;8.15;3.28;;;26.50;51.10;;;;;;4999283;28;20032;-71
2021/06/02 13:08:41;;;;;;;5.40;3.05;;;26.70;50.00;;;;;;5005103;28;20037;-69
2021/06/02 13:11:30;;;;;;;6.95;3.22;;;26.80;49.40;;;;;;5006913;28;20076;-70
2021/06/02 13:14:15;;;;;;;7.05;2.90;;;27.00;48.40;;;;;;5010596;28;20068;-70
2021/06/02 13:16:59;;;;;;;;;;;27.30;48.00;;;;;;5009758;28;20088;-69
2021/06/02 13:19:45;;;;;;;6.03;3.05;;;27.40;48.30;;;;;;5010498;28;19955;-69
2021/06/02 13:22:29;;;;;;;5.13;3.30;;;27.40;46.30;;;;;;5016461;28;20108;-68
2021/06/02 13:25:13;;;;;;;3.45;2.50;;;27.50;46.00;;;;;;5008649;28;20037;-71
2021/06/02 13:28:02;;;;;;;3.58;2.58;;;27.60;45.20;;;;;;5004767;28;20073;-70
2021/06/02 13:30:47;;;;;;;5.88;2.65;;;27.70;45.00;;;;;;5008979;28;20091;-70
2021/06/02 13:33:45;;;;;;;3.42;2.50;;;27.70;44.40;;;;;;5027562;28;20040;-70
2021/06/02 13:36:29;;;;;;;4.20;2.88;;;27.80;44.30;;;;;;5009403;28;20029;-70
2021/06/02 13:39:19;;;;;;;4.45;2.65;;;27.80;44.90;;;;;;4998021;28;20040;-70
2021/06/02 13:42:03;;;;;;;4.82;2.42;;;27.80;44.70;;;;;;5010920;28;20068;-67
2021/06/02 13:44:54;;;;;;;;;;;27.60;43.30;;;;;;5007930;28;20036;-70
2021/06/02 13:47:39;;;;;;;3.10;2.25;;;27.40;44.30;;;;;;4995181;28;20018;-69
2021/06/02 13:50:23;;;;;;;3.22;2.20;;;27.20;43.20;;;;;;4997785;28;20037;-69
2021/06/02 13:53:14;;;;;;;3.83;2.72;;;27.20;42.50;;;;;;5002218;28;20060;-70
2021/06/02 13:55:58;;;;;;;5.93;2.90;;;27.00;42.00;;;;;;5007073;28;20148;-69
2021/06/02 13:58:42;;;;;;;3.13;2.70;;;26.90;42.60;;;;;;5002338;28;20112;-69
2021/06/02 14:01:26;;;;;;;3.95;2.72;;;27.00;43.00;;;;;;5004303;28;20033;-69
2021/06/02 14:04:11;;;;;;;11.25;2.90;;;27.00;43.30;;;;;;5006056;28;20061;-69
2021/06/02 14:06:57;;;;;;;3.50;2.70;;;27.10;43.40;;;;;;5008294;28;20040;-69
2021/06/02 14:09:43;;;;;;;5.63;3.30;;;27.20;43.60;;;;;;5012727;28;20100;-69
2021/06/02 14:12:29;;;;;;;3.53;2.70;;;27.30;44.20;;;;;;5006408;28;20073;-70
2021/06/02 14:15:13;;;;;;;3.40;2.47;;;27.30;43.40;;;;;;4995946;28;20037;-69
2021/06/02 14:17:57;;;;;;;4.25;2.50;;;27.40;43.30;;;;;;5004284;28;20177;-69
2021/06/02 14:20:41;;;;;;;3.60;2.88;;;27.20;43.10;;;;;;5001554;28;20080;-69
2021/06/02 14:23:25;;;;;;;5.82;3.00;;;27.10;43.50;;;;;;5000655;28;20420;-69
2021/06/02 14:26:09;;;;;;;2.95;2.30;;;27.00;43.50;;;;;;5003002;28;20076;-68
2021/06/02 14:28:53;;;;;;;5.30;2.70;;;27.20;44.10;;;;;;5003435;28;20033;-69
2021/06/02 14:31:39;;;;;;;6.40;2.88;;;27.30;44.00;;;;;;4999078;28;20036;-70
2021/06/02 14:34:23;;;;;;;3.85;3.13;;;27.40;43.90;;;;;;5007633;28;20053;-70
2021/06/02 14:37:07;;;;;;;5.07;2.95;;;27.60;43.10;;;;;;5009218;28;20033;-70
2021/06/02 14:39:53;;;;;;;4.25;2.90;;;27.70;43.60;;;;;;5004317;28;20045;-70